Time;durP1;ratioP1;P1;durP2;ratioP2;P2;SDS_P1;SDS_P2;PMS_P1;PMS_P2;Temp;Humidity;BMP_temperature;BMP_pressure;BME280_temperature;BME280_humidity;BME280_pressure;Samples;Min_cycle;Max_cycle;Signal;HPM_P1;HPM_P2
2022/05/17 00:01:14;;;;;;;16.55;5.85;;;15.40;99.90;;;;;;5069747;28;20477;-79
2022/05/17 00:03:40;;;;;;;16.92;6.45;;;15.30;99.90;;;;;;5070105;28;20094;-79
2022/05/17 00:06:06;;;;;;;20.50;7.28;;;15.30;99.90;;;;;;5069048;28;20040;-79
2022/05/17 00:08:33;;;;;;;13.68;5.70;;;15.30;99.90;;;;;;5068813;28;20044;-78
2022/05/17 00:10:58;;;;;;;15.65;5.15;;;15.20;99.90;;;;;;5052383;28;20067;-79
2022/05/17 00:13:24;;;;;;;11.55;5.35;;;15.20;99.90;;;;;;5051297;28;20051;-79
2022/05/17 00:15:54;;;;;;;16.08;5.50;;;15.20;99.90;;;;;;5070377;28;20377;-79
2022/05/17 00:18:22;;;;;;;14.40;4.90;;;15.10;99.90;;;;;;5067845;28;20052;-79
2022/05/17 00:20:48;;;;;;;14.02;5.80;;;15.00;99.90;;;;;;5051727;28;20106;-80
2022/05/17 00:23:17;;;;;;;18.88;5.97;;;15.00;99.90;;;;;;5068192;28;20119;-80
2022/05/17 00:25:47;;;;;;;10.65;5.47;;;15.00;99.90;;;;;;5069760;28;20032;-80
2022/05/17 00:28:14;;;;;;;13.48;5.03;;;15.00;99.90;;;;;;5068556;28;20044;-80
2022/05/17 00:30:41;;;;;;;14.30;4.75;;;15.00;99.90;;;;;;5051363;28;20167;-80
2022/05/17 00:33:07;;;;;;;21.17;5.50;;;15.00;99.90;;;;;;5051724;28;20063;-79
2022/05/17 00:35:33;;;;;;;15.45;5.35;;;15.00;99.90;;;;;;5068719;28;20049;-80
2022/05/17 00:37:59;;;;;;;15.80;5.35;;;14.90;99.90;;;;;;5068249;28;20488;-80
2022/05/17 00:40:25;;;;;;;13.05;4.93;;;14.90;99.90;;;;;;5051426;28;20040;-80
2022/05/17 00:42:50;;;;;;;16.75;4.70;;;14.90;99.90;;;;;;5051070;28;20048;-80
2022/05/17 00:45:16;;;;;;;18.25;4.95;;;14.90;99.90;;;;;;5068032;28;20044;-80
2022/05/17 00:47:45;;;;;;;11.73;5.05;;;14.90;99.90;;;;;;5050973;28;20132;-79
2022/05/17 00:50:16;;;;;;;10.02;5.03;;;14.80;99.90;;;;;;5068399;28;20404;-79
2022/05/17 00:52:48;;;;;;;18.23;5.05;;;14.80;99.90;;;;;;5067142;28;20044;-79
2022/05/17 00:55:25;;;;;;;11.73;2.87;;;14.80;99.90;;;;;;5050971;28;20103;-79
2022/05/17 00:57:57;;;;;;;16.88;4.05;;;14.80;99.90;;;;;;5068203;28;20115;-78
2022/05/17 01:00:25;;;;;;;18.92;4.95;;;14.80;99.90;;;;;;5067727;28;20036;-78
2022/05/17 01:02:57;;;;;;;17.45;4.70;;;14.80;99.90;;;;;;5051531;28;20045;-78
2022/05/17 01:05:24;;;;;;;;;;;14.80;99.90;;;;;;5068282;28;20040;-79
2022/05/17 01:07:56;;;;;;;16.15;4.43;;;14.70;99.90;;;;;;5069527;28;20014;-78
2022/05/17 01:10:24;;;;;;;15.68;4.30;;;14.70;99.90;;;;;;5067856;28;20120;-79
2022/05/17 01:15:35;;;;;;;18.65;5.30;;;14.70;99.90;;;;;;5068906;28;20052;-79
2022/05/17 01:18:02;;;;;;;17.67;5.03;;;14.70;99.90;;;;;;5066783;28;20044;-79
2022/05/17 01:20:27;;;;;;;15.40;4.35;;;14.70;99.90;;;;;;5050935;28;20041;-78
2022/05/17 01:22:53;;;;;;;15.07;4.72;;;14.60;99.90;;;;;;5067303;28;20059;-77
2022/05/17 01:25:19;;;;;;;17.25;5.53;;;14.60;99.90;;;;;;5050738;28;20040;-79
2022/05/17 01:27:54;;;;;;;22.52;5.55;;;14.70;99.90;;;;;;5050741;28;20036;-79
2022/05/17 01:30:23;;;;;;;18.92;5.55;;;14.60;99.90;;;;;;5050104;28;20185;-79
2022/05/17 01:32:49;;;;;;;20.63;5.15;;;14.60;99.90;;;;;;5050402;28;20055;-79
2022/05/17 01:35:16;;;;;;;14.57;5.05;;;14.80;99.90;;;;;;5066459;28;20040;-79
2022/05/17 01:37:42;;;;;;;17.85;5.95;;;14.50;99.90;;;;;;5066994;28;20047;-79
2022/05/17 01:40:10;;;;;;;20.20;6.18;;;14.60;99.90;;;;;;5033960;28;20044;-79
2022/05/17 01:42:36;;;;;;;16.23;5.55;;;14.50;99.90;;;;;;5050025;28;20049;-79
2022/05/17 01:45:04;;;;;;;20.63;5.97;;;14.50;99.90;;;;;;5067191;28;20041;-78
2022/05/17 01:47:32;;;;;;;16.45;5.70;;;14.50;99.90;;;;;;5066374;28;20110;-80
2022/05/17 01:49:58;;;;;;;19.55;6.40;;;14.50;99.90;;;;;;5050738;28;20049;-80
2022/05/17 01:52:24;;;;;;;19.40;6.35;;;14.40;99.90;;;;;;5067956;28;20084;-80
2022/05/17 01:54:49;;;;;;;18.30;7.45;;;14.40;99.90;;;;;;5066676;28;20119;-80
2022/05/17 01:57:15;;;;;;;22.85;6.45;;;14.40;99.90;;;;;;5066922;28;20055;-80
2022/05/17 01:59:41;;;;;;;13.05;5.85;;;14.40;99.90;;;;;;5066954;28;20079;-80
2022/05/17 02:02:07;;;;;;;21.30;6.47;;;14.40;99.90;;;;;;5067084;28;20127;-80
2022/05/17 02:04:33;;;;;;;16.67;5.63;;;14.30;99.90;;;;;;5066499;28;20052;-80
2022/05/17 02:07:01;;;;;;;17.88;6.15;;;14.30;99.90;;;;;;5067128;28;20051;-80
2022/05/17 02:09:26;;;;;;;25.88;6.93;;;14.30;99.90;;;;;;5067947;28;20037;-80
2022/05/17 02:11:52;;;;;;;16.20;6.00;;;14.20;99.90;;;;;;5066808;28;20093;-80
2022/05/17 02:14:18;;;;;;;23.05;6.30;;;14.20;99.90;;;;;;5067195;28;20044;-80
2022/05/17 02:16:44;;;;;;;15.02;6.43;;;14.20;99.90;;;;;;5051106;28;20454;-77
2022/05/17 02:19:10;;;;;;;16.40;6.10;;;14.30;99.90;;;;;;5070791;28;20153;-80
2022/05/17 02:21:39;;;;;;;19.20;5.90;;;14.20;99.90;;;;;;5071546;28;20070;-80
2022/05/17 02:24:06;;;;;;;16.02;5.90;;;14.20;99.90;;;;;;5054547;28;20131;-79
2022/05/17 02:26:32;;;;;;;18.90;6.03;;;14.20;99.90;;;;;;5071828;28;20037;-80
2022/05/17 02:28:58;;;;;;;16.70;6.47;;;14.10;99.90;;;;;;5072434;28;20123;-79
2022/05/17 02:31:23;;;;;;;23.92;7.25;;;14.10;99.90;;;;;;5054116;28;20119;-80
2022/05/17 02:33:50;;;;;;;14.68;4.90;;;14.40;99.90;;;;;;5070572;28;20044;-79
2022/05/17 02:36:16;;;;;;;19.83;7.43;;;14.20;99.90;;;;;;5072082;28;20044;-78
2022/05/17 02:38:43;;;;;;;19.75;6.70;;;14.10;99.90;;;;;;5053526;28;20102;-78
2022/05/17 02:41:10;;;;;;;19.05;6.53;;;14.10;99.90;;;;;;5070987;28;20296;-78
2022/05/17 02:43:36;;;;;;;18.90;5.97;;;14.10;99.90;;;;;;5053097;28;20049;-78
2022/05/17 02:46:02;;;;;;;24.80;5.72;;;14.10;99.90;;;;;;5070271;28;20044;-79
2022/05/17 02:48:27;;;;;;;17.25;5.90;;;14.10;99.90;;;;;;5070396;28;20056;-78
2022/05/17 02:50:53;;;;;;;16.42;5.72;;;14.10;99.90;;;;;;5070335;28;20051;-78
2022/05/17 02:53:19;;;;;;;18.27;6.80;;;14.00;99.90;;;;;;5072124;28;20068;-78
2022/05/17 02:55:44;;;;;;;12.05;5.55;;;14.00;99.90;;;;;;5070170;28;20505;-78
2022/05/17 02:58:10;;;;;;;16.17;6.38;;;14.20;99.90;;;;;;5073264;28;20059;-78
2022/05/17 03:00:36;;;;;;;21.15;6.13;;;14.00;99.90;;;;;;5054287;28;20408;-78
2022/05/17 03:03:02;;;;;;;16.83;6.53;;;14.00;99.90;;;;;;5071504;28;20040;-80
2022/05/17 03:05:28;;;;;;;14.98;5.55;;;14.00;99.90;;;;;;5071361;28;20128;-78
2022/05/17 03:07:53;;;;;;;16.13;5.53;;;13.90;99.90;;;;;;5052964;28;20127;-78
2022/05/17 03:10:19;;;;;;;11.48;5.22;;;14.00;99.90;;;;;;5053710;28;20129;-79
2022/05/17 03:12:45;;;;;;;17.95;5.63;;;13.90;99.90;;;;;;5069174;28;20049;-78
2022/05/17 03:15:16;;;;;;;13.50;4.68;;;13.90;99.90;;;;;;5069627;28;20131;-77
2022/05/17 03:17:42;;;;;;;18.73;5.78;;;13.90;99.90;;;;;;5069189;28;20049;-78
2022/05/17 03:20:08;;;;;;;16.67;5.50;;;13.90;99.90;;;;;;5071332;28;20045;-78
2022/05/17 03:22:34;;;;;;;20.38;6.07;;;13.80;99.90;;;;;;5069469;28;20043;-78
2022/05/17 03:24:59;;;;;;;13.82;6.10;;;13.80;99.90;;;;;;5052721;28;20403;-78
2022/05/17 03:27:25;;;;;;;14.10;5.03;;;13.80;99.90;;;;;;5052322;28;20040;-78
2022/05/17 03:29:51;;;;;;;18.45;5.85;;;13.80;99.90;;;;;;5052453;28;20041;-78
2022/05/17 03:32:17;;;;;;;18.25;6.53;;;13.80;99.90;;;;;;5053050;28;20063;-78
2022/05/17 03:34:42;;;;;;;17.30;5.80;;;13.70;99.90;;;;;;5035443;28;20557;-78
2022/05/17 03:37:08;;;;;;;15.93;5.78;;;13.70;99.90;;;;;;5052663;28;20040;-78
2022/05/17 03:39:34;;;;;;;14.00;6.00;;;13.70;99.90;;;;;;5070691;28;20090;-78
2022/05/17 03:41:59;;;;;;;15.90;5.68;;;13.70;99.90;;;;;;5069502;28;20476;-78
2022/05/17 03:44:25;;;;;;;16.60;5.93;;;13.70;99.90;;;;;;5069188;28;20488;-78
2022/05/17 03:46:51;;;;;;;15.88;4.90;;;13.60;99.90;;;;;;5052140;28;20052;-78
2022/05/17 03:49:16;;;;;;;17.58;5.78;;;13.70;99.90;;;;;;5070559;28;20051;-79
2022/05/17 03:51:45;;;;;;;17.17;5.45;;;14.20;99.90;;;;;;5051677;28;20040;-79
2022/05/17 03:54:11;;;;;;;16.65;6.55;;;13.60;99.90;;;;;;5069364;28;20048;-79
2022/05/17 03:56:37;;;;;;;14.77;5.15;;;13.60;99.90;;;;;;5068367;28;20056;-78
2022/05/17 03:59:03;;;;;;;18.52;5.53;;;14.40;99.90;;;;;;5036134;28;20578;-78
2022/05/17 04:01:29;;;;;;;14.13;4.50;;;13.60;99.90;;;;;;5069212;28;20044;-78
2022/05/17 04:03:54;;;;;;;13.88;5.55;;;13.60;99.90;;;;;;5068707;28;20087;-78
2022/05/17 04:06:21;;;;;;;13.20;4.15;;;13.70;99.90;;;;;;5068741;28;20060;-78
2022/05/17 04:08:48;;;;;;;14.82;5.25;;;13.70;99.90;;;;;;5052154;28;20052;-79
2022/05/17 04:11:13;;;;;;;12.10;5.03;;;13.70;99.90;;;;;;5052099;28;20224;-79
2022/05/17 04:13:39;;;;;;;19.70;5.35;;;13.70;99.90;;;;;;5068098;28;20187;-79
2022/05/17 04:16:05;;;;;;;18.63;5.80;;;13.80;99.90;;;;;;5051755;28;20045;-79
2022/05/17 04:18:30;;;;;;;14.25;5.57;;;13.80;99.90;;;;;;5051994;28;20086;-79
2022/05/17 04:21:04;;;;;;;13.73;4.40;;;13.80;99.90;;;;;;5051754;28;20056;-79
2022/05/17 04:23:30;;;;;;;12.40;4.47;;;13.80;99.90;;;;;;5068349;28;20506;-79
2022/05/17 04:25:56;;;;;;;13.52;5.28;;;13.90;99.90;;;;;;5067782;28;20543;-79
2022/05/17 04:28:22;;;;;;;13.48;4.47;;;13.90;99.90;;;;;;5069774;28;20506;-79
2022/05/17 04:30:49;;;;;;;12.50;4.20;;;14.00;99.90;;;;;;5069860;28;20044;-78
2022/05/17 04:33:15;;;;;;;14.88;5.10;;;14.10;99.90;;;;;;5069526;28;20059;-78
2022/05/17 04:35:41;;;;;;;7.85;4.03;;;14.10;99.90;;;;;;5069387;28;20044;-79
2022/05/17 04:38:07;;;;;;;15.52;5.43;;;14.20;99.90;;;;;;5069122;28;20115;-79
2022/05/17 04:40:36;;;;;;;13.32;4.75;;;14.40;99.90;;;;;;5067568;28;20056;-79
2022/05/17 04:43:02;;;;;;;13.88;4.28;;;14.40;99.90;;;;;;5068064;28;20040;-78
2022/05/17 04:45:28;;;;;;;16.83;5.20;;;14.50;99.90;;;;;;5070278;28;20120;-78
2022/05/17 04:47:54;;;;;;;16.60;4.60;;;14.70;99.90;;;;;;5068629;28;20492;-79
2022/05/17 04:50:20;;;;;;;18.63;4.13;;;14.80;99.90;;;;;;5068758;28;20048;-77
2022/05/17 04:52:47;;;;;;;15.43;3.90;;;15.00;99.90;;;;;;5069664;28;20044;-78
2022/05/17 04:55:15;;;;;;;7.72;3.38;;;15.20;99.90;;;;;;5050687;28;20044;-78
2022/05/17 04:57:41;;;;;;;12.93;3.55;;;15.30;99.90;;;;;;5068062;28;20056;-77
2022/05/17 05:00:16;;;;;;;11.68;3.50;;;15.40;99.90;;;;;;5067013;28;20041;-78
2022/05/17 05:02:42;;;;;;;14.32;3.55;;;15.50;99.90;;;;;;5051742;28;20098;-78
2022/05/17 05:05:08;;;;;;;12.35;3.88;;;15.60;99.90;;;;;;5069201;28;20033;-78
2022/05/17 05:07:34;;;;;;;11.43;4.22;;;15.70;99.90;;;;;;5067706;28;20090;-79
2022/05/17 05:10:00;;;;;;;14.98;3.88;;;15.80;99.90;;;;;;5067875;28;20080;-78
2022/05/17 05:12:26;;;;;;;14.77;4.53;;;16.20;99.90;;;;;;5067125;28;20093;-79
2022/05/17 05:14:51;;;;;;;23.73;4.38;;;15.80;99.90;;;;;;5068078;28;20090;-78
2022/05/17 05:17:17;;;;;;;14.95;3.50;;;15.80;99.90;;;;;;5050205;28;20045;-78
2022/05/17 05:19:43;;;;;;;11.98;3.50;;;15.90;99.90;;;;;;5067478;28;20051;-79
2022/05/17 05:22:09;;;;;;;11.50;3.50;;;15.90;99.90;;;;;;5067470;28;20048;-78
2022/05/17 05:24:35;;;;;;;11.23;3.05;;;15.90;99.90;;;;;;5067911;28;20045;-78
2022/05/17 05:27:01;;;;;;;13.98;4.10;;;16.00;99.90;;;;;;5051220;28;20400;-78
2022/05/17 05:29:27;;;;;;;12.82;4.15;;;15.90;99.90;;;;;;5066393;28;20059;-78
2022/05/17 05:31:52;;;;;;;10.23;3.30;;;16.20;99.90;;;;;;5033587;28;20040;-78
2022/05/17 05:34:18;;;;;;;10.55;2.88;;;15.90;99.90;;;;;;5066496;28;20037;-78
2022/05/17 05:36:46;;;;;;;9.63;3.05;;;15.80;99.90;;;;;;5050671;28;20101;-78
2022/05/17 05:39:12;;;;;;;11.68;3.50;;;15.80;99.90;;;;;;5067034;28;20036;-78
2022/05/17 05:41:37;;;;;;;10.98;3.45;;;15.80;99.90;;;;;;5067371;28;20585;-80
2022/05/17 05:44:03;;;;;;;16.48;3.55;;;15.80;99.90;;;;;;5050128;28;20051;-80
2022/05/17 05:46:29;;;;;;;12.90;3.90;;;15.80;99.90;;;;;;5066416;28;20106;-79
2022/05/17 05:48:55;;;;;;;12.65;3.58;;;15.90;99.90;;;;;;5033704;28;20044;-81
2022/05/17 05:51:21;;;;;;;10.85;3.22;;;15.90;99.90;;;;;;5065880;28;20082;-79
2022/05/17 05:53:46;;;;;;;14.07;3.42;;;16.40;99.90;;;;;;5067206;28;20044;-77
2022/05/17 05:56:12;;;;;;;12.00;3.35;;;16.10;99.90;;;;;;5067714;28;20063;-78
2022/05/17 05:58:39;;;;;;;11.85;3.42;;;16.20;99.90;;;;;;5068679;28;20395;-79
2022/05/17 06:01:06;;;;;;;10.73;3.53;;;16.30;99.90;;;;;;5068924;28;20506;-79
2022/05/17 06:03:33;;;;;;;11.52;3.67;;;16.40;99.90;;;;;;5066381;28;20036;-78
2022/05/17 06:06:00;;;;;;;13.82;3.63;;;16.40;99.90;;;;;;5067361;28;20396;-78
2022/05/17 06:08:26;;;;;;;12.57;3.28;;;16.50;99.90;;;;;;5067716;28;20058;-78
2022/05/17 06:10:51;;;;;;;9.25;3.47;;;16.60;99.90;;;;;;5068265;28;20123;-78
2022/05/17 06:13:18;;;;;;;13.40;3.60;;;16.60;99.90;;;;;;5066318;28;20098;-78
2022/05/17 06:15:45;;;;;;;12.27;3.30;;;16.60;99.90;;;;;;5066615;28;20052;-78
2022/05/17 06:18:11;;;;;;;10.65;3.22;;;16.60;99.90;;;;;;5067006;28;20082;-78
2022/05/17 06:20:38;;;;;;;11.88;3.17;;;16.60;99.90;;;;;;5067480;28;20526;-78
2022/05/17 06:23:05;;;;;;;12.48;2.97;;;16.70;99.90;;;;;;5066849;28;20045;-78
2022/05/17 06:25:35;;;;;;;8.32;3.63;;;16.80;99.90;;;;;;5066169;28;20056;-78
2022/05/17 06:28:01;;;;;;;15.77;3.22;;;16.80;99.90;;;;;;5034096;28;20049;-78
2022/05/17 06:30:27;;;;;;;8.13;3.20;;;16.90;99.90;;;;;;5066379;28;20542;-78
2022/05/17 06:32:53;;;;;;;10.90;3.58;;;17.10;99.90;;;;;;5067918;28;20044;-78
2022/05/17 06:35:19;;;;;;;10.63;2.78;;;17.20;99.90;;;;;;5066548;28;20037;-78
2022/05/17 06:37:45;;;;;;;12.45;4.53;;;17.40;99.90;;;;;;5033017;28;20041;-78
2022/05/17 06:40:11;;;;;;;13.13;3.83;;;17.50;99.90;;;;;;5050224;28;20048;-78
2022/05/17 06:42:37;;;;;;;11.13;3.25;;;17.60;99.90;;;;;;5049216;28;20476;-78
2022/05/17 06:45:04;;;;;;;15.20;2.83;;;17.70;99.90;;;;;;5033751;28;20037;-77
2022/05/17 06:47:29;;;;;;;7.13;2.30;;;17.80;99.90;;;;;;5066192;28;20040;-78
2022/05/17 06:49:55;;;;;;;9.35;3.10;;;17.80;99.90;;;;;;5068218;28;20041;-78
2022/05/17 06:52:26;;;;;;;6.88;2.38;;;17.80;99.90;;;;;;5068205;28;20042;-78
2022/05/17 06:54:52;;;;;;;7.88;2.65;;;17.80;99.90;;;;;;5065671;28;20122;-78
2022/05/17 06:57:17;;;;;;;9.23;2.80;;;17.80;99.90;;;;;;5066364;28;20044;-78
2022/05/17 06:59:45;;;;;;;8.38;2.30;;;17.90;99.90;;;;;;5065856;28;20484;-77
2022/05/17 07:02:11;;;;;;;8.23;2.30;;;17.90;99.90;;;;;;5068053;28;20561;-78
2022/05/17 07:04:37;;;;;;;11.85;3.35;;;18.00;99.90;;;;;;5069861;28;20037;-78
2022/05/17 07:07:05;;;;;;;9.00;2.75;;;18.10;99.90;;;;;;5069832;28;20032;-78
2022/05/17 07:09:31;;;;;;;6.85;2.63;;;18.20;99.90;;;;;;5069715;28;20052;-78
2022/05/17 07:14:41;;;;;;;13.98;3.42;;;18.40;99.90;;;;;;5069650;28;20052;-78
2022/05/17 07:17:15;;;;;;;7.95;2.65;;;18.50;99.90;;;;;;5069553;28;20124;-78
2022/05/17 07:19:42;;;;;;;9.98;2.78;;;18.50;99.90;;;;;;5069672;28;20052;-77
2022/05/17 07:22:08;;;;;;;7.72;2.53;;;18.60;99.90;;;;;;5069661;28;20131;-77
2022/05/17 07:24:36;;;;;;;14.07;3.30;;;18.60;99.90;;;;;;5069664;28;20433;-77
2022/05/17 07:27:03;;;;;;;11.55;3.17;;;18.50;99.90;;;;;;5069769;28;20076;-76
2022/05/17 07:29:29;;;;;;;11.23;3.25;;;18.70;99.90;;;;;;5070409;28;20041;-77
2022/05/17 07:31:55;;;;;;;12.05;2.92;;;18.70;99.90;;;;;;5053353;28;20044;-77
2022/05/17 07:34:21;;;;;;;12.43;3.03;;;18.80;99.90;;;;;;5068711;28;20052;-77
2022/05/17 07:36:48;;;;;;;12.23;2.85;;;19.00;99.90;;;;;;5070808;28;20131;-77
2022/05/17 07:39:14;;;;;;;11.32;2.97;;;19.10;99.90;;;;;;5070443;28;20049;-77
2022/05/17 07:41:41;;;;;;;8.63;3.03;;;19.20;99.90;;;;;;5069029;28;20400;-77
2022/05/17 07:44:07;;;;;;;9.93;2.80;;;19.30;99.90;;;;;;5069562;28;20468;-77
2022/05/17 07:46:34;;;;;;;9.90;2.85;;;19.40;99.90;;;;;;5070151;28;20044;-77
2022/05/17 07:49:00;;;;;;;8.00;2.42;;;19.40;99.90;;;;;;5053010;28;20074;-77
2022/05/17 07:51:26;;;;;;;11.80;3.13;;;19.50;99.90;;;;;;5070073;28;20053;-77
2022/05/17 07:53:52;;;;;;;8.63;2.80;;;19.60;99.90;;;;;;5070912;28;20044;-77
2022/05/17 07:56:18;;;;;;;13.05;2.80;;;19.70;99.90;;;;;;5035963;28;20472;-77
2022/05/17 07:58:44;;;;;;;5.80;2.22;;;19.70;99.90;;;;;;5066876;28;20127;-77
2022/05/17 08:01:10;;;;;;;9.70;2.33;;;19.80;99.90;;;;;;5069414;28;20071;-78
2022/05/17 08:03:36;;;;;;;10.90;2.83;;;19.90;99.90;;;;;;5050135;28;20365;-78
2022/05/17 08:06:01;;;;;;;8.00;2.53;;;20.10;99.90;;;;;;5068891;28;20553;-78
2022/05/17 08:08:27;;;;;;;9.65;2.58;;;20.20;99.90;;;;;;5068563;28;20033;-77
2022/05/17 08:10:54;;;;;;;9.23;2.42;;;20.30;99.90;;;;;;5067640;28;20605;-78
2022/05/17 08:13:21;;;;;;;10.95;2.40;;;20.40;99.90;;;;;;5067455;28;20060;-78
2022/05/17 08:15:48;;;;;;;13.65;2.75;;;20.40;99.90;;;;;;5068078;28;20123;-78
2022/05/17 08:18:15;;;;;;;12.45;2.55;;;20.50;99.90;;;;;;5051014;28;20497;-78
2022/05/17 08:20:42;;;;;;;10.25;2.85;;;20.60;99.90;;;;;;5049740;28;20068;-78
2022/05/17 08:23:08;;;;;;;10.25;2.85;;;20.80;99.90;;;;;;5069013;28;20098;-78
2022/05/17 08:28:18;;;;;;;11.18;3.22;;;21.20;99.90;;;;;;5068235;28;20080;-78
2022/05/17 08:30:46;;;;;;;9.63;3.10;;;21.50;99.90;;;;;;5067570;28;20072;-77
2022/05/17 08:33:17;;;;;;;14.48;2.97;;;21.70;99.90;;;;;;5067496;28;20050;-77
2022/05/17 08:35:55;;;;;;;9.38;3.15;;;21.80;99.90;;;;;;5066871;28;20044;-77
2022/05/17 08:38:30;;;;;;;13.23;3.45;;;21.80;99.90;;;;;;5068005;28;20140;-78
2022/05/17 08:41:40;;;;;;;5.65;2.55;;;21.80;99.90;;;;;;5050337;28;20106;-77
2022/05/17 08:44:13;;;;;;;14.68;3.28;;;22.10;99.90;;;;;;5058700;28;20117;-77
2022/05/17 08:47:00;;;;;;;12.48;3.40;;;22.30;99.90;;;;;;5067409;28;20119;-78
2022/05/17 08:49:35;;;;;;;18.88;3.58;;;22.40;99.90;;;;;;5050677;28;20341;-78
2022/05/17 08:52:17;;;;;;;10.68;2.88;;;22.40;99.90;;;;;;5068575;28;20048;-78
2022/05/17 08:55:08;;;;;;;9.75;3.08;;;22.40;99.90;;;;;;5050241;28;20097;-78
2022/05/17 08:57:49;;;;;;;8.27;2.83;;;22.50;99.90;;;;;;5050833;28;20052;-78
2022/05/17 09:00:28;;;;;;;6.43;2.53;;;22.60;99.90;;;;;;5066959;28;20088;-78
2022/05/17 09:03:00;;;;;;;9.13;2.92;;;22.60;99.90;;;;;;5066604;28;20450;-78
2022/05/17 09:05:48;;;;;;;10.05;2.90;;;22.60;99.90;;;;;;5066789;28;20052;-78
2022/05/17 09:08:32;;;;;;;8.38;2.35;;;22.60;99.90;;;;;;5067394;28;20404;-78
2022/05/17 09:11:21;;;;;;;10.57;2.40;;;22.40;99.90;;;;;;5066065;28;20052;-78
2022/05/17 09:14:08;;;;;;;8.20;2.63;;;22.20;99.90;;;;;;5066881;28;20486;-78
2022/05/17 09:16:39;;;;;;;8.60;3.15;;;22.10;99.90;;;;;;5065446;28;20052;-79
2022/05/17 09:19:05;;;;;;;9.23;2.50;;;22.10;99.90;;;;;;5066172;28;20051;-78
2022/05/17 09:21:35;;;;;;;6.70;2.30;;;22.30;99.90;;;;;;5067238;28;20509;-78
2022/05/17 09:24:21;;;;;;;5.55;1.92;;;22.60;99.90;;;;;;5065875;28;20631;-78
2022/05/17 09:27:03;;;;;;;9.20;2.53;;;22.80;99.90;;;;;;5066024;28;20041;-78
2022/05/17 09:29:45;;;;;;;5.82;1.80;;;23.00;99.90;;;;;;5065203;28;20127;-78
2022/05/17 09:32:22;;;;;;;5.30;2.22;;;23.20;99.90;;;;;;5065704;28;20052;-77
2022/05/17 09:35:00;;;;;;;6.22;2.10;;;23.30;99.90;;;;;;5049400;28;20502;-78
2022/05/17 09:37:33;;;;;;;7.13;2.40;;;23.40;99.90;;;;;;5048329;28;20048;-78
2022/05/17 09:40:01;;;;;;;8.98;2.53;;;23.50;99.90;;;;;;5066155;28;20048;-78
2022/05/17 09:42:34;;;;;;;6.32;1.83;;;23.70;99.90;;;;;;5049232;28;20048;-78
2022/05/17 09:45:03;;;;;;;7.38;1.63;;;23.90;99.90;;;;;;5048949;28;20055;-78
2022/05/17 09:47:35;;;;;;;6.68;1.92;;;23.80;99.90;;;;;;5049321;28;20041;-78
2022/05/17 09:53:05;;;;;;;8.20;1.88;;;23.20;99.90;;;;;;5065984;28;20060;-78
2022/05/17 09:55:33;;;;;;;9.35;2.60;;;22.90;99.00;;;;;;5066496;28;20056;-79
2022/05/17 09:58:02;;;;;;;8.00;2.13;;;22.80;99.90;;;;;;5065618;28;20429;-77
2022/05/17 10:00:30;;;;;;;7.45;2.03;;;22.90;99.90;;;;;;5065582;28;20037;-78
2022/05/17 10:03:03;;;;;;;7.15;2.17;;;23.10;99.90;;;;;;5065461;28;20407;-78
2022/05/17 10:05:29;;;;;;;9.73;2.08;;;23.30;99.90;;;;;;5067125;28;20520;-78
2022/05/17 10:07:59;;;;;;;11.13;2.78;;;23.50;99.90;;;;;;5064949;28;20036;-78
2022/05/17 10:10:35;;;;;;;5.47;1.70;;;23.60;99.90;;;;;;5067229;28;20052;-78
2022/05/17 10:13:21;;;;;;;7.00;1.85;;;23.70;99.90;;;;;;5066926;28;20049;-78
2022/05/17 10:15:53;;;;;;;9.68;1.40;;;23.90;96.80;;;;;;5064280;28;20140;-77
2022/05/17 10:18:30;;;;;;;8.87;2.00;;;23.80;97.50;;;;;;5067172;28;20090;-77
2022/05/17 10:21:05;;;;;;;5.28;1.75;;;23.70;94.90;;;;;;5065077;28;20070;-79
2022/05/17 10:23:50;;;;;;;8.23;1.60;;;23.70;96.10;;;;;;5065691;28;20454;-79
2022/05/17 10:26:21;;;;;;;5.65;1.33;;;23.80;96.10;;;;;;5065436;28;20088;-80
2022/05/17 10:29:00;;;;;;;8.82;1.85;;;24.30;95.20;;;;;;5065033;28;20579;-79
2022/05/17 10:31:44;;;;;;;5.35;1.42;;;24.10;91.40;;;;;;5066135;28;20104;-78
2022/05/17 10:34:19;;;;;;;4.95;1.15;;;24.10;91.70;;;;;;5048559;28;20507;-80
2022/05/17 10:36:49;;;;;;;9.27;1.65;;;24.20;93.80;;;;;;5064847;28;20123;-79
2022/05/17 10:39:37;;;;;;;7.93;1.83;;;24.30;94.80;;;;;;5069355;28;20044;-79
2022/05/17 10:42:04;;;;;;;6.45;1.70;;;24.30;90.80;;;;;;5068593;28;20051;-80
2022/05/17 10:44:51;;;;;;;9.70;1.90;;;24.20;93.10;;;;;;5070479;28;20040;-80
2022/05/17 10:47:34;;;;;;;7.35;1.30;;;24.40;94.00;;;;;;5070356;28;20047;-80
2022/05/17 10:50:07;;;;;;;5.85;1.48;;;24.60;85.30;;;;;;5069694;28;20559;-79
2022/05/17 10:53:06;;;;;;;7.35;1.55;;;24.80;90.40;;;;;;5053310;28;20044;-79
2022/05/17 10:55:42;;;;;;;7.90;1.42;;;25.00;89.60;;;;;;5070251;28;20044;-78
2022/05/17 10:58:44;;;;;;;5.78;1.23;;;25.10;88.20;;;;;;5068272;28;20040;-79
2022/05/17 11:01:21;;;;;;;11.02;1.77;;;25.40;87.00;;;;;;5069312;28;20099;-78
2022/05/17 11:04:08;;;;;;;5.47;1.42;;;25.60;84.10;;;;;;5068584;28;20048;-79
2022/05/17 11:06:53;;;;;;;3.55;1.08;;;25.60;79.80;;;;;;5068399;28;20056;-81
2022/05/17 11:09:47;;;;;;;6.05;1.33;;;25.50;80.30;;;;;;5068740;28;20044;-80
2022/05/17 11:12:16;;;;;;;4.22;1.40;;;25.60;75.70;;;;;;5051991;28;20037;-80
2022/05/17 11:14:49;;;;;;;2.92;1.05;;;25.60;75.80;;;;;;5068240;28;20044;-80
2022/05/17 11:17:40;;;;;;;5.38;1.10;;;25.80;74.20;;;;;;5068521;28;20052;-81
2022/05/17 11:20:23;;;;;;;3.97;1.48;;;25.90;66.30;;;;;;5067522;28;20074;-79
2022/05/17 11:23:08;;;;;;;4.60;1.08;;;25.90;70.40;;;;;;5069298;28;20094;-80
2022/05/17 11:26:15;;;;;;;6.38;1.10;;;25.80;71.80;;;;;;5068521;28;20411;-80
2022/05/17 11:29:23;;;;;;;7.82;1.33;;;25.70;68.20;;;;;;5056511;28;20063;-80
2022/05/17 11:32:14;;;;;;;7.97;2.10;;;25.70;70.80;;;;;;5070191;28;20388;-80
2022/05/17 11:34:45;;;;;;;8.52;1.33;;;25.80;67.40;;;;;;5069993;28;20137;-79
2022/05/17 11:37:33;;;;;;;5.38;1.27;;;26.00;73.30;;;;;;5051173;28;20063;-79
2022/05/17 11:40:07;;;;;;;5.10;1.75;;;26.40;69.60;;;;;;5044871;28;20451;-79
2022/05/17 11:43:40;;;;;;;10.38;1.85;;;26.30;66.00;;;;;;5068044;28;20079;-79
2022/05/17 11:45:40;;;;;;;7.22;1.52;;;26.30;67.70;;;;;;5067398;28;20071;-79
2022/05/17 11:48:15;;;;;;;8.43;1.40;;;26.40;65.50;;;;;;5067608;28;20044;-79
2022/05/17 11:50:55;;;;;;;5.10;1.60;;;26.40;62.40;;;;;;5067342;28;20045;-79
2022/05/17 11:53:24;;;;;;;5.05;1.65;;;26.60;63.80;;;;;;5067521;28;20139;-79
2022/05/17 11:56:19;;;;;;;6.90;1.63;;;26.90;64.80;;;;;;5067547;28;20565;-79
2022/05/17 11:58:50;;;;;;;5.38;1.58;;;27.20;60.60;;;;;;5068704;28;20044;-80
2022/05/17 12:01:31;;;;;;;5.38;1.42;;;27.50;61.20;;;;;;5068349;28;20403;-79
2022/05/17 12:03:56;;;;;;;8.73;1.02;;;27.70;59.80;;;;;;5068998;28;20053;-81
2022/05/17 12:06:38;;;;;;;5.22;1.42;;;27.80;62.60;;;;;;5067216;28;20044;-79
2022/05/17 12:09:29;;;;;;;5.03;1.58;;;28.00;61.80;;;;;;5068014;28;20149;-79
2022/05/17 12:12:13;;;;;;;7.03;0.60;;;27.90;53.80;;;;;;5068232;28;20072;-80
2022/05/17 12:14:55;;;;;;;4.53;0.80;;;27.90;50.10;;;;;;5068819;28;20156;-80
2022/05/17 12:17:26;;;;;;;3.50;0.85;;;27.70;50.70;;;;;;5068728;28;20275;-80
2022/05/17 12:20:31;;;;;;;3.58;1.20;;;27.50;52.10;;;;;;5066655;28;20370;-80
2022/05/17 12:23:21;;;;;;;4.68;1.00;;;27.00;50.00;;;;;;5068732;28;20049;-79
2022/05/17 12:26:10;;;;;;;5.20;1.17;;;27.00;52.50;;;;;;5068353;28;20052;-80
2022/05/17 12:28:49;;;;;;;3.90;1.00;;;27.00;50.70;;;;;;5067920;28;20045;-81
2022/05/17 12:31:27;;;;;;;4.55;0.88;;;27.00;50.00;;;;;;5050456;28;20084;-78
2022/05/17 12:33:55;;;;;;;6.05;1.55;;;27.00;51.80;;;;;;5068452;28;20055;-80
2022/05/17 12:36:39;;;;;;;5.35;0.98;;;27.20;52.80;;;;;;5068068;28;20062;-79
2022/05/17 12:44:47;;;;;;;8.15;1.80;;;27.60;50.10;;;;;;5067042;28;20052;-80
2022/05/17 12:47:18;;;;;;;5.60;1.20;;;27.60;49.80;;;;;;5066798;28;20083;-80
2022/05/17 12:49:50;;;;;;;3.87;1.07;;;27.40;49.90;;;;;;5066261;28;20040;-79
2022/05/17 12:52:24;;;;;;;4.45;1.27;;;27.30;50.10;;;;;;5067637;28;20071;-80
2022/05/17 12:54:50;;;;;;;7.85;1.00;;;27.50;50.10;;;;;;5067923;28;20382;-79
2022/05/17 12:57:22;;;;;;;4.05;0.95;;;27.60;50.60;;;;;;5066123;28;20497;-79
2022/05/17 12:59:48;;;;;;;3.30;1.15;;;27.60;49.80;;;;;;5066402;28;20138;-79
2022/05/17 13:02:25;;;;;;;3.97;0.90;;;27.60;50.20;;;;;;5067443;28;20518;-79
2022/05/17 13:04:51;;;;;;;3.28;1.15;;;27.70;46.70;;;;;;5068066;28;20047;-79
2022/05/17 13:07:19;;;;;;;6.13;1.00;;;27.70;49.60;;;;;;5066231;28;20036;-79
2022/05/17 13:10:04;;;;;;;5.55;1.23;;;27.60;49.50;;;;;;5034365;28;20455;-79
2022/05/17 13:12:37;;;;;;;6.47;0.90;;;27.60;48.50;;;;;;5068136;28;20053;-79
2022/05/17 13:15:08;;;;;;;7.63;1.00;;;27.60;48.90;;;;;;5065592;28;20119;-79